Station: Bradshaw-Koolendong Valley

  Atmospheric Gas Attenuation - ITU Rec 676-11   --------------- db/100km ---------------
Date Time Temp RH % AH g/m3 Dew Point Wind Direction Speed kph Gust kph Barometer mB Rainfall Since 9am 24GHz 47GHz 76GHz 122GHz 134GHz 241GHz
23 09:00 18.8 40 6.44 4.9 0 0 1013.1 0 14.8 21.3 29.6 77.3 66.7 227.9
23 08:50 17.2 49 7.18 6.4 0 0 1013.1 0 16.4 22.8 32.8 85.9 76.8 263.1
23 08:40 15.2 63 8.18 8.2 0 0 1013.1 0 18.6 24.8 37.5 98.2 91.2 313.6
23 08:30 13.2 73 8.38 8.6 0 0 1013.1 0 19.1 25.7 39.2 102.9 96.2 330.8
23 08:20 10.8 82 8.11 7.8 0 0 1013.1 0 18.7 26.0 39.3 103.1 95.6 328.3
23 08:10 9.1 85 7.54 6.7 0 0 1013.1 0 17.5 25.5 37.8 99.0 89.9 308.2
23 08:00 7.8 87 7.1 5.8 0 0 1020.3 0 16.6 25.4 36.9 96.5 86.0 294.1
23 07:50 7.1 86 6.71 4.9 0 0 1013.1 0 15.8 24.7 35.3 92.4 80.9 276.4
23 07:40 6.8 86 6.58 4.6 0 0 1013.1 0 15.6 24.6 34.9 91.3 79.5 271.3
23 07:30 6.6 85 6.42 4.2 0 0 1013.1 0 15.2 24.4 34.3 89.8 77.6 264.5
23 07:20 6.7 85 6.46 4.3 0 0 1013.1 0 15.3 24.4 34.5 90.1 78.0 266.0
23 07:10 6.8 84 6.43 4.3 0 0 1013.1 0 15.2 24.3 34.3 89.7 77.5 264.3
23 07:00 7 83 6.43 4.3 0 0 1013.1 0 15.2 24.3 34.2 89.5 77.3 263.6
23 06:50 7 81 6.28 3.9 0 0 1013.1 0 14.9 24.0 33.6 87.9 75.3 256.6
23 06:40 7 82 6.36 4.1 4 4 1013.1 0 15.1 24.2 33.9 88.7 76.4 260.4
23 06:30 6.9 82 6.32 4 0 0 1019.4 0 15.0 24.4 34.1 89.0 76.3 260.2
23 06:20 7 83 6.43 4.3 0 0 1013.1 0 15.2 24.3 34.2 89.5 77.3 263.6
23 06:10 7.2 82 6.44 4.3 0 0 1013.1 0 15.2 24.2 34.2 89.4 77.2 263.4
23 06:00 7.3 82 6.48 4.4 0 0 1013.1 0 15.3 24.3 34.3 89.7 77.7 265.0
23 05:50 7.4 81 6.44 4.3 0 0 1013.1 0 15.2 24.2 34.1 89.1 77.0 262.8
23 05:40 7.5 79 6.33 4.2 0 0 1013.1 0 15.0 24.0 33.6 87.8 75.5 257.3
23 05:30 7.4 80 6.36 4.2 0 0 1018.9 0 15.1 24.3 34.0 88.8 76.4 260.3
23 05:20 7.5 79 6.33 4.2 0 0 1013.1 0 15.0 24.0 33.6 87.8 75.5 257.3
23 05:10 6.9 83 6.39 4.2 0 0 1013.1 0 15.1 24.2 34.1 89.2 76.9 262.1
23 05:00 6.7 82 6.23 3.8 2 2 1013.1 0 14.8 24.0 33.5 87.7 74.9 255.3
23 04:50 6.7 83 6.31 4 4 4 1013.1 0 15.0 24.2 33.9 88.5 76.0 259.0
23 04:40 6.5 82 6.15 3.6 4 4 1013.1 0 14.6 24.0 33.3 87.0 74.1 252.2
23 04:30 6.6 80 6.04 3.5 0 0 1013.1 0 14.4 23.8 32.8 85.7 72.5 246.8
23 04:20 6.8 80 6.12 3.7 0 0 1013.1 0 14.6 23.8 33.1 86.4 73.4 249.9
23 04:10 7.1 81 6.32 4 0 0 1013.1 0 15.0 24.1 33.7 88.2 75.7 258.2
23 04:00 7.1 81 6.32 4.1 0 0 1019 0 15.0 24.3 34.0 88.7 76.1 259.5
23 03:50 7.2 81 6.36 4.1 0 0 1013.1 0 15.1 24.1 33.8 88.5 76.2 259.7
23 03:40 7.1 81 6.32 4 0 0 1013.1 0 15.0 24.1 33.7 88.2 75.7 258.2
23 03:30 7.1 80 6.24 3.9 0 0 1013.1 0 14.8 23.9 33.4 87.3 74.7 254.5
23 03:20 7.4 79 6.29 4 0 0 1013.1 0 14.9 23.9 33.5 87.5 75.0 255.8
23 03:10 7.4 79 6.29 4 0 0 1013.1 0 14.9 23.9 33.5 87.5 75.0 255.8
23 03:00 7.5 78 6.25 3.9 0 0 1019.1 0 14.8 24.1 33.5 87.6 74.8 254.9
23 02:50 7.7 79 6.41 4.3 0 0 1013.1 0 15.2 24.1 33.8 88.5 76.3 260.4
23 02:40 7.8 78 6.37 4.2 0 2 1013.1 0 15.1 24.0 33.6 87.9 75.7 258.2
23 02:30 7.7 76 6.17 3.7 0 0 1013.1 0 14.6 23.7 32.9 85.9 73.2 249.3
23 02:20 7.9 77 6.33 4.1 0 0 1013.1 0 15.0 23.9 33.4 87.4 75.1 256.0
23 02:10 8 77 6.37 4.2 0 0 1013.1 0 15.1 23.9 33.5 87.7 75.5 257.5
23 02:00 8.3 77 6.49 4.5 0 0 1019 0 15.3 24.2 34.1 89.2 77.2 263.4
23 01:50 8.2 77 6.45 4.4 0 0 1013.1 0 15.2 24.0 33.8 88.3 76.4 260.6
23 01:40 8.3 75 6.32 4.1 0 0 1013.1 0 14.9 23.8 33.2 86.8 74.6 254.3
23 01:30 8.4 74 6.28 4 0 0 1013.1 0 14.9 23.7 33.0 86.3 74.0 252.1
23 01:20 8.7 73 6.32 4.1 0 0 1013.1 0 14.9 23.6 33.1 86.4 74.2 253.0
23 01:10 9 73 6.44 4.4 0 0 1013.1 0 15.2 23.8 33.4 87.3 75.5 257.5
23 01:00 9.2 71 6.34 4.2 0 0 1013.1 0 15.0 23.5 32.9 86.1 74.0 252.3
23 00:50 9.2 71 6.34 4.2 0 0 1013.1 0 15.0 23.5 32.9 86.1 74.0 252.3
23 00:40 9.4 72 6.51 4.6 0 0 1013.1 0 15.3 23.8 33.5 87.6 76.0 259.4
23 00:30 9.4 70 6.33 4.2 0 0 1013.1 0 14.9 23.5 32.8 85.7 73.7 251.2
23 00:20 9.5 71 6.46 4.5 0 0 1013.1 0 15.2 23.7 33.3 87.0 75.2 256.8
23 00:10 9.7 69 6.36 4.3 0 0 1013.1 0 15.0 23.4 32.8 85.7 73.8 251.6
23 00:00 9.9 68 6.35 4.3 0 0 1019.1 0 14.9 23.6 32.9 86.0 73.8 251.8
22 23:50 9.8 66 6.13 3.9 0 0 1013.1 0 14.5 23.1 31.9 83.3 70.7 241.0
22 23:40 10 67 6.3 4.1 0 0 1013.1 0 14.8 23.3 32.5 84.8 72.7 248.0
22 23:30 10.3 67 6.42 4.4 0 0 1013.1 0 15.1 23.4 32.8 85.7 74.0 252.4
22 23:20 10.4 63 6.07 3.6 0 0 1013.1 0 14.3 22.8 31.4 82.0 69.4 236.6
22 23:10 10.6 63 6.15 3.8 0 0 1013.1 0 14.5 22.9 31.6 82.6 70.3 239.5
22 23:00 10.9 63 6.27 4.1 0 0 1013.1 0 14.7 23.0 32.0 83.5 71.5 243.9
22 22:50 11.2 63 6.39 4.4 0 0 1013.1 0 15.0 23.1 32.3 84.4 72.7 248.2
22 22:40 11.5 61 6.3 4.4 0 0 1013.1 0 14.8 22.9 31.9 83.2 71.3 243.4
22 22:30 11.5 61 6.3 4.4 0 0 1013.1 0 14.8 22.9 31.9 83.2 71.3 243.4
22 22:20 11.7 61 6.38 4.4 0 0 1013.1 0 14.9 23.0 32.1 83.8 72.2 246.2
22 22:10 12.1 59 6.33 4.5 0 0 1013.1 0 14.8 22.8 31.7 82.9 71.2 242.8
22 22:00 12.2 57 6.15 3.9 0 0 1013.1 0 14.4 22.5 31.0 81.0 68.9 234.8
22 21:50 12.5 54 5.94 3.4 0 0 1013.1 0 14.0 22.1 30.1 78.6 66.0 224.9
22 21:40 12.9 54 6.09 3.8 0 0 1013.1 0 14.3 22.2 30.5 79.7 67.5 230.2
22 21:30 13.2 56 6.43 4.6 0 0 1013.1 0 15.0 22.7 31.7 82.7 71.4 243.8
22 21:20 13.7 53 6.28 4.3 0 0 1013.1 0 14.7 22.3 30.9 80.8 69.1 235.9
22 21:10 13.9 52 6.23 4.2 0 0 1013.1 0 14.5 22.2 30.7 80.1 68.4 233.2
22 21:00 14.4 51 6.3 4.4 0 0 1019.3 0 14.7 22.4 31.0 80.8 69.2 236.0
22 20:50 14.7 49 6.17 4.1 0 0 1013.1 0 14.4 21.9 30.2 78.7 67.0 228.4
22 20:40 15.2 47 6.1 4.2 4 4 1013.1 0 14.2 21.7 29.7 77.5 65.7 224.1
22 20:30 15.5 46 6.08 3.9 0 0 1019.1 0 14.2 21.8 29.8 77.6 65.6 223.6
22 20:20 16 44 5.99 3.7 0 0 1013.1 0 14.0 21.4 29.0 75.7 63.8 217.4
22 20:10 16.6 41 5.79 3.3 0 0 1013.1 0 13.5 20.9 28.1 73.3 61.0 207.8
22 20:00 17.4 39 5.78 3.3 0 0 1013.1 0 13.5 20.7 27.8 72.5 60.3 205.4
22 19:50 18.3 36 5.63 2.9 2 2 1013.1 0 13.1 20.3 27.0 70.4 58.0 197.3
22 19:40 19.1 33 5.41 2.4 4 4 1013.1 0 12.6 19.9 26.0 67.8 55.0 186.9
22 19:30 20.5 30 5.34 2.3 4 6 1013.1 0 12.4 19.5 25.4 66.0 53.3 181.1
22 19:20 21.4 28 5.25 2.1 4 4 1013.1 0 12.2 19.2 24.8 64.5 51.8 175.9
22 19:10 22 26 5.05 1.6 4 4 1013.1 0 11.8 18.8 24.0 62.4 49.3 167.3
22 19:00 22.4 26 5.16 1.9 4 6 1013.1 0 12.0 18.9 24.3 63.0 50.2 170.5
22 18:50 23.4 24 5.05 1.7 4 6 1013.1 0 11.7 18.5 23.6 61.4 48.5 164.5
22 18:40 24.2 22 4.84 1.1 2 4 1013.1 0 11.3 18.1 22.8 59.1 45.9 155.6
22 18:30 25.7 20 4.79 1 2 4 1013.1 0 11.1 17.8 22.2 57.6 44.6 151.1
22 18:20 26.5 18 4.51 0.2 6 6 1013.1 0 10.5 17.3 21.2 54.9 41.5 140.2
22 18:10 27.2 17 4.42 0 4 6 1013.1 0 10.3 17.1 20.8 53.8 40.3 136.1
22 18:00 27.6 16 4.26 -0.5 9 17 1017.6 0 10.0 16.9 20.4 52.6 38.8 130.7
22 17:50 28 15 4.08 -1.1 9 11 1013.1 0 9.6 16.5 19.6 50.7 36.8 123.7
22 17:40 28.3 15 4.15 -0.8 7 11 1013.1 0 9.8 16.6 19.8 51.1 37.3 125.5
22 17:30 28.7 16 4.52 0.4 9 13 1013.1 0 10.5 16.9 20.7 53.6 40.6 137.0
22 17:20 28.8 15 4.26 -0.4 9 13 1013.1 0 10.0 16.6 20.0 51.6 38.1 128.4
22 17:10 28.8 15 4.26 -0.4 17 20 1013.1 0 10.0 16.6 20.0 51.6 38.1 128.4
22 17:00 28.6 15 4.22 -0.6 9 15 1013.1 0 9.9 16.6 19.9 51.4 37.8 127.4
22 16:50 29.1 15 4.33 -0.2 7 11 1013.1 0 10.1 16.6 20.1 51.9 38.6 130.2
22 16:40 29.1 15 4.33 -0.2 9 11 1013.1 0 10.1 16.6 20.1 51.9 38.6 130.2
22 16:30 29 15 4.31 -0.3 11 13 1013.1 0 10.1 16.6 20.0 51.8 38.5 129.7

Last Refresh: 23-Jul-2024 09:07:10

Bureau of Meteorology